Összefoglaló Pér: 

VentuSky:

Felhőkép magyaroszág: 

 

 

Keresés

Felhőkép 

Felhőkép

Széltérkép

Széltérkép

Győr-Pér Repülőtér

Élő webkamera kép

 Nagyobb kép

Győr-Pér Repülőtér

[Source: ADDS]
METAR
LHPR 300515Z AUTO 27007KT CAVOK M01/M03 Q1011 NOSIG =
LHPR 300515Z 3006/3015 27008KT CAVOK TEMPO 3006/3009 SCT040 BKN070 BECMG 3009/3012 23012KT BECMG 3012/3015 6000 -SN -SNRA BKN030 OVC060
TAF
LHPR 300515Z 3006/3015 27008KT CAVOK TEMPO 3006/3009 SCT040 BKN070 BECMG 3009/3012 23012KT BECMG 3012/3015 6000 -SN -SNRA BKN030 OVC060 =
SR / SS: 06:14 / 15:00 UTC (Napkelte / Napnyugta 2021-11-30)

Kapcsolat

Telephely:     9099 Pér, Repülõtér

Klubhelyiség: 9021 Gyõr, Városház tér 3.

E-mail: info@aeroclub-gyor.hu

Telefon: 06-20-777-9106

Adószám: 19113832-2-08

JSN Metro template designed by JoomlaShine.com